Time;durP1;ratioP1;P1;durP2;ratioP2;P2;SDS_P1;SDS_P2;PMS_P1;PMS_P2;Temp;Humidity;BMP_temperature;BMP_pressure;BME280_temperature;BME280_humidity;BME280_pressure;Samples;Min_cycle;Max_cycle;Signal;HPM_P1;HPM_P2
2022/03/26 00:00:12;;;;;;;;;;;11.90;84.10;12.50;100160.00;;;;341043;28;94832;-89
2022/03/26 00:00:24;;;;;;;;;;;11.80;84.00;12.50;100155.00;;;;337508;28;91213;-89
2022/03/26 00:00:36;;;;;;;;;;;11.90;84.00;12.40;100161.00;;;;336612;28;93223;-88
2022/03/26 00:00:48;;;;;;;;;;;11.90;84.00;12.30;100158.00;;;;338831;28;91380;-88
2022/03/26 00:01:03;;;;;;;;;;;11.90;84.30;12.30;100160.00;;;;337828;28;95094;-88
2022/03/26 00:01:15;;;;;;;;;;;11.80;83.80;12.30;100163.00;;;;337591;28;92099;-88
2022/03/26 00:01:27;;;;;;;;;;;11.90;83.70;12.30;100159.00;;;;337830;28;93969;-88
2022/03/26 00:01:39;;;;;;;;;;;11.90;83.60;12.40;100161.00;;;;338931;28;92087;-88
2022/03/26 00:01:51;;;;;;;;;;;11.80;83.40;12.40;100158.00;;;;335242;29;93279;-88
2022/03/26 00:02:03;;;;;;;;;;;11.90;83.90;12.40;100165.00;;;;337500;28;91971;-88
2022/03/26 00:02:15;;;;;;;;;;;11.90;84.10;12.30;100160.00;;;;338791;28;96155;-89
2022/03/26 00:02:28;;;;;;;;;;;11.90;84.20;12.40;100156.00;;;;338879;28;92122;-88
2022/03/26 00:02:40;;;;;;;;;;;11.90;84.40;12.40;100157.00;;;;340727;28;95228;-88
2022/03/26 00:02:52;;;;;;;;;;;11.80;84.00;12.40;100161.00;;;;337530;28;91271;-88
2022/03/26 00:03:05;;;;;;;;;;;11.80;84.60;12.40;100156.00;;;;340518;28;95114;-89
2022/03/26 00:03:17;;;;;;;;;;;11.80;84.00;12.30;100160.00;;;;340281;28;91098;-89
2022/03/26 00:03:29;;;;;;;;;;;11.80;84.20;12.20;100158.00;;;;337373;28;95900;-88
2022/03/26 00:03:41;;;;;;;;;;;11.80;84.30;12.20;100163.00;;;;341546;28;91973;-88
2022/03/26 00:03:52;;;;;;;;;;;11.80;84.10;12.30;100161.00;;;;337812;28;96043;-88
2022/03/26 00:04:05;;;;;;;;;;;11.80;83.90;12.30;100151.00;;;;338841;28;91978;-88
2022/03/26 00:04:17;;;;;;;;;;;11.80;83.90;12.30;100157.00;;;;343176;28;94783;-88
2022/03/26 00:04:29;;;;;;;;;;;11.80;84.30;12.40;100159.00;;;;341551;28;92034;-88
2022/03/26 00:04:41;;;;;;;;;;;11.80;84.70;12.30;100161.00;;;;337831;28;93439;-89
2022/03/26 00:04:53;;;;;;;;;;;11.80;84.70;12.30;100154.00;;;;340155;28;91343;-88
2022/03/26 00:05:05;;;;;;;;;;;11.80;85.10;12.30;100167.00;;;;341322;28;95184;-88
2022/03/26 00:05:18;;;;;;;;;;;11.80;85.30;12.10;100164.00;;;;335828;28;91217;-89
2022/03/26 00:05:30;;;;;;;;;;;11.80;85.70;12.20;100162.00;;;;339030;28;95805;-88
2022/03/26 00:05:43;;;;;;;;;;;11.80;85.40;12.20;100163.00;;;;340817;28;92156;-89
2022/03/26 00:05:55;;;;;;;;;;;11.70;84.90;12.20;100158.00;;;;341838;28;95042;-88
2022/03/26 00:06:07;;;;;;;;;;;11.80;84.70;12.10;100163.00;;;;341294;28;92009;-88
2022/03/26 00:06:19;;;;;;;;;;;11.70;85.30;12.20;100159.00;;;;337805;28;96144;-88
2022/03/26 00:06:32;;;;;;;;;;;11.70;85.10;12.20;100160.00;;;;338743;28;92068;-88
2022/03/26 00:06:44;;;;;;;;;;;11.70;84.90;12.20;100161.00;;;;339037;28;96156;-89
2022/03/26 00:06:56;;;;;;;;;;;11.70;84.60;12.20;100160.00;;;;337558;28;91273;-88
2022/03/26 00:07:08;;;;;;;;;;;11.70;84.60;12.20;100163.00;;;;340579;28;92731;-89
2022/03/26 00:07:20;;;;;;;;;;;11.70;84.60;12.20;100165.00;;;;340364;28;91812;-88
2022/03/26 00:07:32;;;;;;;;;;;11.70;84.30;12.10;100173.00;;;;337797;28;96142;-88
2022/03/26 00:07:44;;;;;;;;;;;11.70;84.70;12.20;100165.00;;;;340281;28;91996;-88
2022/03/26 00:07:56;;;;;;;;;;;11.70;84.60;12.30;100167.00;;;;340472;28;94529;-88
2022/03/26 00:08:08;;;;;;;;;;;11.70;84.60;12.30;100165.00;;;;339979;28;92137;-88
2022/03/26 00:08:19;;;;;;;;;;;11.70;84.60;12.20;100167.00;;;;340288;28;94589;-88
2022/03/26 00:08:31;;;;;;;;;;;11.70;85.10;12.30;100157.00;;;;337555;28;92043;-88
2022/03/26 00:08:43;;;;;;;;;;;11.70;85.20;12.20;100158.00;;;;338852;28;95671;-88
2022/03/26 00:08:55;;;;;;;;;;;11.70;85.30;12.20;100168.00;;;;343993;28;91258;-87
2022/03/26 00:09:07;;;;;;;;;;;11.70;85.00;12.20;100165.00;;;;343085;28;92747;-88
2022/03/26 00:09:19;;;;;;;;;;;11.70;84.80;12.20;100166.00;;;;340332;28;92012;-88
2022/03/26 00:09:30;;;;;;;;;;;11.70;84.90;12.20;100162.00;;;;337607;28;95896;-87
2022/03/26 00:09:42;;;;;;;;;;;11.70;84.80;12.20;100166.00;;;;340230;28;91132;-88
2022/03/26 00:09:54;;;;;;;;;;;11.70;84.60;12.20;100163.00;;;;341878;28;92401;-87
2022/03/26 00:10:06;;;;;;;;;;;11.70;84.50;12.30;100160.00;;;;340179;28;91958;-88
2022/03/26 00:10:19;;;;;;;;;;;11.70;84.60;12.30;100163.00;;;;340526;28;95628;-88
2022/03/26 00:10:31;;;;;;;;;;;11.70;84.80;12.30;100162.00;;;;341606;28;91206;-88
2022/03/26 00:10:42;;;;;;;;;;;11.70;84.80;12.20;100170.00;;;;337865;28;93680;-88
2022/03/26 00:10:54;;;;;;;;;;;11.70;84.80;12.20;100163.00;;;;336106;28;91264;-88
2022/03/26 00:11:06;;;;;;;;;;;11.70;84.70;12.30;100168.00;;;;340262;28;94377;-88
2022/03/26 00:11:19;;;;;;;;;;;11.70;84.70;12.30;100154.00;;;;340142;28;92130;-88
2022/03/26 00:11:31;;;;;;;;;;;11.70;85.10;12.30;100160.00;;;;339130;28;93526;-88
2022/03/26 00:11:43;;;;;;;;;;;11.70;85.30;12.30;100168.00;;;;339968;28;92126;-88
2022/03/26 00:11:55;;;;;;;;;;;11.70;85.70;12.20;100167.00;;;;343209;28;94034;-88
2022/03/26 00:12:08;;;;;;;;;;;11.70;85.00;12.20;100165.00;;;;341434;28;91935;-88
2022/03/26 00:12:20;;;;;;;;;;;11.70;84.90;12.10;100165.00;;;;340399;28;96000;-88
2022/03/26 00:12:31;;;;;;;;;;;11.70;85.10;12.10;100163.00;;;;340240;28;92006;-88
2022/03/26 00:12:43;;;;;;;;;;;11.60;84.70;12.10;100162.00;;;;341770;28;96156;-88
2022/03/26 00:12:57;;;;;;;;;;;11.70;84.70;12.20;100162.00;;;;338890;28;91304;-88
2022/03/26 00:13:09;;;;;;;;;;;11.70;84.70;12.20;100163.00;;;;340510;28;95119;-88
2022/03/26 00:13:21;;;;;;;;;;;11.70;84.70;12.30;100169.00;;;;340184;28;91954;-88
2022/03/26 00:13:33;;;;;;;;;;;11.70;84.90;12.30;100169.00;;;;341652;28;95691;-88
2022/03/26 00:13:44;;;;;;;;;;;11.70;85.10;12.30;100162.00;;;;340207;28;92259;-88
2022/03/26 00:13:56;;;;;;;;;;;11.70;85.10;12.20;100162.00;;;;339231;28;94799;-88
2022/03/26 00:14:08;;;;;;;;;;;11.70;85.00;12.20;100161.00;;;;339088;28;92060;-88
2022/03/26 00:14:20;;;;;;;;;;;11.70;85.10;12.20;100153.00;;;;338956;28;96145;-88
2022/03/26 00:14:32;;;;;;;;;;;11.70;85.00;12.10;100169.00;;;;341599;28;91913;-88
2022/03/26 00:14:44;;;;;;;;;;;11.70;85.00;12.20;100166.00;;;;343086;28;95014;-88
2022/03/26 00:14:58;;;;;;;;;;;11.70;84.80;12.20;100162.00;;;;342952;28;90443;-88
2022/03/26 00:15:10;;;;;;;;;;;11.70;84.70;12.30;100165.00;;;;341256;28;95124;-88
2022/03/26 00:15:22;;;;;;;;;;;11.70;85.00;12.20;100170.00;;;;340153;28;91974;-88
2022/03/26 00:15:34;;;;;;;;;;;11.70;85.00;12.20;100162.00;;;;340488;28;96033;-88
2022/03/26 00:15:46;;;;;;;;;;;11.70;84.90;12.20;100165.00;;;;337510;28;92017;-88
2022/03/26 00:15:58;;;;;;;;;;;11.70;85.00;12.20;100165.00;;;;337914;28;96689;-88
2022/03/26 00:16:10;;;;;;;;;;;11.70;84.90;12.10;100165.00;;;;338755;28;92026;-88
2022/03/26 00:16:22;;;;;;;;;;;11.60;85.20;12.20;100175.00;;;;340509;28;96044;-88
2022/03/26 00:16:34;;;;;;;;;;;11.60;85.00;12.20;100165.00;;;;337620;28;91901;-88
2022/03/26 00:16:46;;;;;;;;;;;11.60;84.80;12.20;100163.00;;;;339048;28;95947;-88
2022/03/26 00:17:00;;;;;;;;;;;11.70;85.00;12.20;100170.00;;;;338723;28;91279;-88
2022/03/26 00:17:12;;;;;;;;;;;11.70;85.00;12.10;100168.00;;;;339420;28;92976;-88
2022/03/26 00:17:25;;;;;;;;;;;11.60;85.20;12.00;100160.00;;;;340742;28;92207;-88
2022/03/26 00:17:37;;;;;;;;;;;11.70;85.80;12.10;100155.00;;;;339424;28;93385;-88
2022/03/26 00:17:49;;;;;;;;;;;11.60;86.00;12.10;100162.00;;;;338892;28;91926;-88
2022/03/26 00:18:01;;;;;;;;;;;11.70;85.30;12.10;100167.00;;;;340466;28;95668;-88
2022/03/26 00:18:12;;;;;;;;;;;11.60;85.30;12.10;100167.00;;;;342010;28;91242;-87
2022/03/26 00:18:24;;;;;;;;;;;11.60;85.20;12.10;100173.00;;;;339107;28;94574;-88
2022/03/26 00:18:36;;;;;;;;;;;11.60;84.90;12.20;100167.00;;;;338860;28;91988;-88
2022/03/26 00:18:48;;;;;;;;;;;11.60;85.10;12.20;100169.00;;;;339076;28;95728;-88
2022/03/26 00:19:00;;;;;;;;;;;11.60;85.00;12.10;100170.00;;;;340263;28;90428;-88
2022/03/26 00:19:11;;;;;;;;;;;11.60;84.90;12.10;100165.00;;;;341735;28;95332;-88
2022/03/26 00:19:23;;;;;;;;;;;11.60;84.90;12.10;100162.00;;;;340151;28;91893;-88
2022/03/26 00:19:35;;;;;;;;;;;11.60;85.10;12.10;100162.00;;;;340239;28;95175;-88
2022/03/26 00:19:47;;;;;;;;;;;11.60;85.40;12.00;100161.00;;;;340279;28;91935;-88
2022/03/26 00:19:59;;;;;;;;;;;11.60;85.60;12.00;100162.00;;;;340574;28;93187;-88
2022/03/26 00:20:11;;;;;;;;;;;11.60;85.80;11.90;100167.00;;;;341107;28;91343;-88
2022/03/26 00:20:22;;;;;;;;;;;11.60;85.90;12.00;100163.00;;;;339552;28;94849;-88
2022/03/26 00:20:34;;;;;;;;;;;11.60;85.80;11.90;100167.00;;;;341587;28;92031;-88
2022/03/26 00:20:46;;;;;;;;;;;11.60;86.10;11.90;100173.00;;;;341632;28;95884;-88
2022/03/26 00:20:58;;;;;;;;;;;11.60;86.30;12.00;100165.00;;;;344336;28;91201;-88
2022/03/26 00:21:10;;;;;;;;;;;11.60;85.90;12.00;100171.00;;;;341291;28;94424;-88
2022/03/26 00:21:22;;;;;;;;;;;11.60;85.80;12.10;100161.00;;;;336267;28;91997;-88
2022/03/26 00:21:34;;;;;;;;;;;11.60;85.60;12.10;100162.00;;;;341744;28;95479;-87
2022/03/26 00:21:48;;;;;;;;;;;11.60;85.60;12.20;100166.00;;;;338784;28;91720;-87
2022/03/26 00:21:59;;;;;;;;;;;11.60;85.70;12.00;100165.00;;;;339077;28;95934;-88
2022/03/26 00:22:11;;;;;;;;;;;11.60;85.60;12.10;100153.00;;;;342810;28;92093;-88
2022/03/26 00:22:23;;;;;;;;;;;11.50;85.50;12.10;100162.00;;;;339201;28;94862;-88
2022/03/26 00:22:35;;;;;;;;;;;11.60;85.60;12.20;100170.00;;;;338865;28;91884;-88
2022/03/26 00:22:47;;;;;;;;;;;11.60;85.80;12.20;100164.00;;;;340217;28;96025;-88
2022/03/26 00:22:59;;;;;;;;;;;11.60;85.90;12.20;100158.00;;;;341512;28;91119;-88
2022/03/26 00:23:11;;;;;;;;;;;11.60;85.90;12.20;100165.00;;;;339727;28;92770;-88
2022/03/26 00:23:22;;;;;;;;;;;11.60;85.80;12.10;100161.00;;;;339965;28;91889;-88
2022/03/26 00:23:34;;;;;;;;;;;11.60;86.00;12.10;100173.00;;;;339091;28;94722;-88
2022/03/26 00:23:46;;;;;;;;;;;11.60;85.90;12.00;100167.00;;;;340254;28;91998;-88
2022/03/26 00:23:58;;;;;;;;;;;11.60;85.90;11.90;100169.00;;;;341901;28;93211;-88
2022/03/26 00:24:10;;;;;;;;;;;11.50;85.90;11.80;100163.00;;;;338060;28;92122;-88
2022/03/26 00:24:21;;;;;;;;;;;11.60;86.00;12.00;100167.00;;;;339027;28;95618;-88
2022/03/26 00:24:33;;;;;;;;;;;11.60;85.80;12.10;100170.00;;;;338859;28;92083;-88
2022/03/26 00:24:45;;;;;;;;;;;11.50;85.80;12.10;100169.00;;;;340375;28;96254;-88
2022/03/26 00:24:57;;;;;;;;;;;11.50;85.80;12.10;100162.00;;;;341501;28;91328;-88
2022/03/26 00:25:10;;;;;;;;;;;11.50;85.90;12.20;100164.00;;;;341860;28;94562;-88
2022/03/26 00:25:22;;;;;;;;;;;11.60;86.00;12.00;100172.00;;;;338812;28;91933;-88
2022/03/26 00:25:34;;;;;;;;;;;11.50;86.00;12.00;100158.00;;;;340448;28;96178;-88
2022/03/26 00:25:45;;;;;;;;;;;11.60;86.00;12.00;100166.00;;;;337637;28;92044;-88
2022/03/26 00:26:00;;;;;;;;;;;11.60;86.10;11.90;100164.00;;;;338217;28;94437;-88
2022/03/26 00:26:12;;;;;;;;;;;11.60;86.50;11.90;100169.00;;;;338116;28;92271;-88
2022/03/26 00:26:24;;;;;;;;;;;11.50;86.00;12.00;100167.00;;;;338982;28;94835;-88
2022/03/26 00:26:36;;;;;;;;;;;11.50;85.90;12.00;100174.00;;;;336517;28;92080;-88
2022/03/26 00:26:48;;;;;;;;;;;11.50;85.80;11.90;100174.00;;;;338618;28;94116;-88
2022/03/26 00:26:59;;;;;;;;;;;11.50;85.80;12.00;100172.00;;;;340153;28;91258;-88
2022/03/26 00:27:11;;;;;;;;;;;11.50;85.70;12.00;100168.00;;;;338363;28;94859;-88
2022/03/26 00:27:24;;;;;;;;;;;11.50;85.60;12.00;100167.00;;;;341634;28;91843;-88
2022/03/26 00:27:36;;;;;;;;;;;11.50;86.00;11.90;100163.00;;;;341902;28;94111;-88
2022/03/26 00:27:49;;;;;;;;;;;11.50;86.40;11.80;100167.00;;;;341506;28;92160;-88
2022/03/26 00:28:01;;;;;;;;;;;11.50;87.20;11.90;100159.00;;;;340485;28;96189;-88
2022/03/26 00:28:12;;;;;;;;;;;11.50;86.90;12.00;100166.00;;;;338813;28;91918;-88
2022/03/26 00:28:25;;;;;;;;;;;11.50;86.50;12.00;100159.00;;;;341914;28;92071;-88
2022/03/26 00:28:37;;;;;;;;;;;11.50;86.30;12.00;100168.00;;;;342965;28;91191;-87
2022/03/26 00:28:49;;;;;;;;;;;11.50;85.90;11.90;100172.00;;;;340315;28;95733;-87
2022/03/26 00:29:01;;;;;;;;;;;11.50;86.10;11.90;100164.00;;;;341583;28;91317;-88
2022/03/26 00:29:13;;;;;;;;;;;11.50;85.90;11.90;100165.00;;;;340089;28;92828;-88
2022/03/26 00:29:25;;;;;;;;;;;11.50;85.70;12.00;100163.00;;;;338729;28;91266;-88
2022/03/26 00:29:37;;;;;;;;;;;11.40;85.60;12.00;100165.00;;;;340715;28;96130;-88
2022/03/26 00:29:49;;;;;;;;;;;11.50;86.00;12.00;100176.00;;;;340200;28;91962;-88
2022/03/26 00:30:03;;;;;;;;;;;11.50;86.20;12.00;100169.00;;;;339090;28;95744;-87
2022/03/26 00:30:15;;;;;;;;;;;11.50;86.10;12.00;100168.00;;;;338938;28;91981;-88
2022/03/26 00:30:27;;;;;;;;;;;11.50;86.00;12.00;100166.00;;;;337636;28;94603;-88
2022/03/26 00:30:39;;;;;;;;;;;11.50;85.80;12.00;100171.00;;;;338732;28;91981;-88
2022/03/26 00:30:51;;;;;;;;;;;11.40;85.80;11.90;100173.00;;;;340346;28;94539;-88
2022/03/26 00:31:02;;;;;;;;;;;11.50;85.90;12.00;100172.00;;;;338912;28;91196;-88
2022/03/26 00:31:14;;;;;;;;;;;11.50;85.90;12.00;100168.00;;;;339122;28;95065;-88
2022/03/26 00:31:26;;;;;;;;;;;11.40;85.90;12.00;100172.00;;;;336125;28;92467;-88
2022/03/26 00:31:38;;;;;;;;;;;11.50;85.90;12.00;100167.00;;;;337776;28;95967;-88
2022/03/26 00:31:50;;;;;;;;;;;11.50;86.10;12.00;100164.00;;;;341529;28;92058;-88
2022/03/26 00:32:04;;;;;;;;;;;11.40;86.10;11.90;100163.00;;;;339081;28;95842;-88
2022/03/26 00:32:16;;;;;;;;;;;11.40;86.00;11.90;100169.00;;;;338688;28;92074;-88
2022/03/26 00:32:28;;;;;;;;;;;11.40;86.20;11.90;100169.00;;;;337609;28;96092;-87
2022/03/26 00:32:40;;;;;;;;;;;11.40;86.10;11.90;100171.00;;;;340108;28;92082;-87
2022/03/26 00:32:52;;;;;;;;;;;11.40;86.10;11.80;100171.00;;;;340322;28;93213;-88
2022/03/26 00:33:04;;;;;;;;;;;11.40;86.40;11.70;100174.00;;;;338830;28;91287;-88
2022/03/26 00:33:15;;;;;;;;;;;11.40;86.60;11.80;100171.00;;;;340400;28;94863;-88
2022/03/26 00:33:28;;;;;;;;;;;11.40;86.90;11.80;100176.00;;;;338961;28;91119;-88
2022/03/26 00:33:42;;;;;;;;;;;11.40;86.70;11.80;100176.00;;;;340535;28;94092;-88
2022/03/26 00:33:54;;;;;;;;;;;11.40;86.60;11.70;100173.00;;;;337519;28;91994;-88
2022/03/26 00:34:06;;;;;;;;;;;11.40;87.00;11.70;100168.00;;;;336462;28;95586;-88
2022/03/26 00:34:18;;;;;;;;;;;11.40;88.10;11.70;100172.00;;;;338830;28;91907;-88
2022/03/26 00:34:30;;;;;;;;;;;11.30;87.40;11.70;100173.00;;;;337786;28;95764;-88
2022/03/26 00:34:42;;;;;;;;;;;11.30;87.20;11.80;100173.00;;;;334891;29;91964;-88
2022/03/26 00:34:54;;;;;;;;;;;11.30;86.60;11.80;100177.00;;;;340303;28;96007;-88
2022/03/26 00:35:09;;;;;;;;;;;11.30;86.20;11.90;100175.00;;;;337077;28;90442;-88
2022/03/26 00:35:21;;;;;;;;;;;11.30;86.10;11.80;100176.00;;;;338068;28;91646;-88
2022/03/26 00:35:32;;;;;;;;;;;11.30;86.10;11.90;100174.00;;;;340175;28;92580;-88
2022/03/26 00:35:44;;;;;;;;;;;11.30;86.00;11.90;100175.00;;;;340489;28;93155;-88
2022/03/26 00:35:57;;;;;;;;;;;11.30;86.10;11.90;100173.00;;;;340213;28;92066;-88
2022/03/26 00:36:08;;;;;;;;;;;11.30;85.90;11.80;100163.00;;;;342131;28;96066;-88
2022/03/26 00:36:20;;;;;;;;;;;11.30;86.10;11.70;100174.00;;;;340207;28;91927;-87
2022/03/26 00:36:32;;;;;;;;;;;11.30;86.00;11.70;100175.00;;;;341846;28;96018;-88
2022/03/26 00:36:44;;;;;;;;;;;11.30;86.00;11.80;100170.00;;;;339005;28;91118;-88
2022/03/26 00:36:56;;;;;;;;;;;11.30;85.90;11.80;100176.00;;;;339017;28;95846;-89
2022/03/26 00:37:08;;;;;;;;;;;11.30;85.90;11.80;100177.00;;;;342953;28;91223;-89
2022/03/26 00:37:20;;;;;;;;;;;11.30;85.80;11.80;100172.00;;;;341884;28;92783;-88
2022/03/26 00:37:32;;;;;;;;;;;11.30;85.60;11.80;100173.00;;;;341561;28;92091;-89
2022/03/26 00:37:44;;;;;;;;;;;11.30;85.40;11.60;100172.00;;;;340479;28;95549;-88
2022/03/26 00:37:55;;;;;;;;;;;11.30;85.40;11.50;100167.00;;;;342907;28;91167;-89
2022/03/26 00:38:07;;;;;;;;;;;11.30;85.60;11.50;100170.00;;;;338066;28;96024;-88
2022/03/26 00:38:19;;;;;;;;;;;11.30;85.70;11.50;100181.00;;;;338648;28;92073;-89
2022/03/26 00:38:31;;;;;;;;;;;11.30;85.60;11.50;100174.00;;;;340222;28;96493;-89
2022/03/26 00:38:43;;;;;;;;;;;11.30;85.50;11.60;100178.00;;;;341254;28;92054;-88
2022/03/26 00:38:54;;;;;;;;;;;11.30;85.10;11.70;100170.00;;;;341700;28;95809;-88
2022/03/26 00:39:06;;;;;;;;;;;11.30;84.90;11.70;100176.00;;;;338955;28;91148;-88
2022/03/26 00:39:18;;;;;;;;;;;11.20;84.70;11.70;100171.00;;;;339199;28;94837;-88
2022/03/26 00:39:30;;;;;;;;;;;11.20;84.50;11.60;100170.00;;;;340106;28;92087;-88
2022/03/26 00:39:42;;;;;;;;;;;11.20;84.60;11.60;100173.00;;;;339125;28;95653;-89
2022/03/26 00:39:54;;;;;;;;;;;11.20;85.10;11.60;100176.00;;;;341627;28;91815;-89
2022/03/26 00:40:06;;;;;;;;;;;11.20;84.90;11.60;100171.00;;;;340429;28;94656;-88
2022/03/26 00:40:18;;;;;;;;;;;11.20;85.00;11.50;100164.00;;;;340245;28;91906;-88
2022/03/26 00:40:30;;;;;;;;;;;11.20;85.10;11.50;100171.00;;;;339107;28;95728;-88
2022/03/26 00:40:42;;;;;;;;;;;11.20;85.10;11.60;100167.00;;;;340221;28;91083;-88
2022/03/26 00:40:54;;;;;;;;;;;11.20;84.90;11.50;100172.00;;;;340372;28;96425;-88
2022/03/26 00:41:06;;;;;;;;;;;11.20;85.20;11.60;100172.00;;;;338255;28;91323;-88
2022/03/26 00:41:18;;;;;;;;;;;11.20;85.00;11.60;100165.00;;;;338270;28;94045;-89
2022/03/26 00:41:29;;;;;;;;;;;11.20;84.80;11.60;100167.00;;;;338489;28;92133;-88
2022/03/26 00:41:41;;;;;;;;;;;11.20;84.50;11.70;100173.00;;;;342123;28;96277;-89
2022/03/26 00:41:53;;;;;;;;;;;11.20;84.50;11.70;100169.00;;;;338913;28;92018;-88
2022/03/26 00:42:08;;;;;;;;;;;11.20;84.50;11.60;100174.00;;;;339073;28;95849;-88
2022/03/26 00:42:20;;;;;;;;;;;11.20;84.60;11.70;100178.00;;;;338886;28;91960;-88
2022/03/26 00:42:31;;;;;;;;;;;11.20;84.40;11.60;100176.00;;;;335141;29;95820;-88
2022/03/26 00:42:43;;;;;;;;;;;11.20;84.30;11.60;100172.00;;;;337508;28;91983;-88
2022/03/26 00:42:55;;;;;;;;;;;11.20;84.20;11.60;100169.00;;;;337737;28;95644;-88
2022/03/26 00:43:07;;;;;;;;;;;11.10;84.30;11.60;100168.00;;;;338959;28;91221;-89
2022/03/26 00:43:19;;;;;;;;;;;11.20;84.50;11.60;100175.00;;;;337859;28;94413;-88
2022/03/26 00:43:31;;;;;;;;;;;11.20;84.70;11.60;100166.00;;;;336279;28;91256;-88
2022/03/26 00:43:43;;;;;;;;;;;11.20;84.70;11.70;100172.00;;;;337414;28;95480;-88
2022/03/26 00:43:55;;;;;;;;;;;11.20;84.80;11.80;100177.00;;;;340270;28;91868;-89
2022/03/26 00:44:07;;;;;;;;;;;11.20;85.10;11.70;100176.00;;;;339103;28;95975;-89
2022/03/26 00:44:20;;;;;;;;;;;11.20;85.20;11.70;100171.00;;;;341304;28;92010;-89
2022/03/26 00:44:32;;;;;;;;;;;11.20;85.00;11.70;100166.00;;;;339123;28;96291;-88
2022/03/26 00:44:43;;;;;;;;;;;11.20;85.10;11.70;100168.00;;;;340187;28;92059;-88
2022/03/26 00:44:55;;;;;;;;;;;11.10;85.20;11.60;100171.00;;;;343097;28;94722;-88
2022/03/26 00:45:08;;;;;;;;;;;11.20;85.30;11.70;100173.00;;;;338700;28;91267;-88
2022/03/26 00:45:20;;;;;;;;;;;11.20;85.10;11.70;100172.00;;;;339162;28;93050;-88
2022/03/26 00:45:32;;;;;;;;;;;11.20;85.00;11.70;100174.00;;;;338799;28;92100;-88
2022/03/26 00:45:44;;;;;;;;;;;11.20;84.70;11.60;100176.00;;;;340454;28;94023;-88
2022/03/26 00:45:56;;;;;;;;;;;11.20;84.70;11.60;100169.00;;;;340202;28;92053;-88
2022/03/26 00:46:07;;;;;;;;;;;11.20;84.60;11.50;100174.00;;;;340366;28;95845;-88
2022/03/26 00:46:19;;;;;;;;;;;11.20;84.80;11.60;100173.00;;;;341531;28;91097;-88
2022/03/26 00:46:31;;;;;;;;;;;11.20;84.70;11.60;100167.00;;;;340412;28;95755;-88
2022/03/26 00:46:45;;;;;;;;;;;11.20;84.50;11.50;100169.00;;;;340206;28;91096;-88
2022/03/26 00:46:57;;;;;;;;;;;11.20;85.00;11.60;100174.00;;;;340196;28;95956;-88
2022/03/26 00:47:08;;;;;;;;;;;11.20;84.80;11.60;100168.00;;;;337128;28;91417;-88
2022/03/26 00:47:20;;;;;;;;;;;11.20;85.40;11.60;100173.00;;;;339221;28;95207;-88
2022/03/26 00:47:33;;;;;;;;;;;11.20;84.70;11.70;100175.00;;;;341561;28;92957;-88
2022/03/26 00:47:45;;;;;;;;;;;11.10;84.70;11.70;100172.00;;;;340456;28;96282;-88
2022/03/26 00:47:56;;;;;;;;;;;11.20;85.10;11.70;100164.00;;;;340192;28;92047;-88
2022/03/26 00:48:08;;;;;;;;;;;11.10;85.10;11.80;100166.00;;;;338864;28;96081;-88
2022/03/26 00:48:20;;;;;;;;;;;11.20;85.20;11.80;100165.00;;;;340188;28;92007;-88
2022/03/26 00:48:33;;;;;;;;;;;11.20;85.10;11.70;100165.00;;;;341843;28;95586;-88
2022/03/26 00:48:45;;;;;;;;;;;11.20;85.20;11.60;100165.00;;;;342863;28;92016;-88
2022/03/26 00:48:58;;;;;;;;;;;11.20;85.00;11.50;100173.00;;;;344506;28;95918;-88
2022/03/26 00:49:12;;;;;;;;;;;11.20;85.10;11.60;100171.00;;;;344267;28;91254;-88
2022/03/26 00:49:23;;;;;;;;;;;11.20;85.10;11.60;100169.00;;;;340324;28;95029;-88
2022/03/26 00:49:35;;;;;;;;;;;11.20;85.10;11.70;100168.00;;;;341405;28;92093;-88
2022/03/26 00:49:47;;;;;;;;;;;11.20;85.10;11.70;100170.00;;;;341774;28;94807;-87
2022/03/26 00:49:59;;;;;;;;;;;11.20;85.00;11.70;100170.00;;;;340254;28;91239;-88
2022/03/26 00:50:11;;;;;;;;;;;11.20;84.70;11.70;100173.00;;;;338930;28;94619;-88
2022/03/26 00:50:23;;;;;;;;;;;11.20;84.70;11.60;100170.00;;;;335522;28;91914;-88
2022/03/26 00:50:35;;;;;;;;;;;11.20;84.80;11.60;100169.00;;;;339107;28;95637;-88
2022/03/26 00:50:47;;;;;;;;;;;11.20;84.70;11.60;100172.00;;;;340093;28;92155;-88
2022/03/26 00:50:59;;;;;;;;;;;11.20;84.60;11.60;100167.00;;;;339123;28;96036;-88
2022/03/26 00:51:11;;;;;;;;;;;11.20;84.80;11.60;100165.00;;;;342051;28;91501;-88
2022/03/26 00:51:23;;;;;;;;;;;11.20;84.70;11.60;100165.00;;;;340497;28;92709;-89
2022/03/26 00:51:35;;;;;;;;;;;11.10;84.70;11.60;100162.00;;;;338829;28;91262;-88
2022/03/26 00:51:47;;;;;;;;;;;11.20;84.80;11.60;100165.00;;;;341737;28;95835;-88
2022/03/26 00:51:59;;;;;;;;;;;11.20;84.70;11.60;100171.00;;;;338971;28;91025;-89
2022/03/26 00:52:11;;;;;;;;;;;11.20;84.80;11.60;100165.00;;;;339997;28;96245;-88
2022/03/26 00:52:23;;;;;;;;;;;11.20;85.00;11.60;100172.00;;;;340231;28;91939;-88
2022/03/26 00:52:35;;;;;;;;;;;11.20;84.90;11.60;100161.00;;;;339067;28;97021;-89
2022/03/26 00:52:47;;;;;;;;;;;11.20;85.50;11.60;100167.00;;;;338826;28;92006;-88
2022/03/26 00:52:59;;;;;;;;;;;11.10;84.80;11.60;100167.00;;;;341752;28;95885;-88
2022/03/26 00:53:11;;;;;;;;;;;11.20;85.00;11.70;100169.00;;;;339955;28;91547;-88
2022/03/26 00:53:22;;;;;;;;;;;11.20;85.30;11.60;100176.00;;;;340824;28;95594;-88
2022/03/26 00:53:34;;;;;;;;;;;11.10;85.00;11.70;100161.00;;;;338870;28;91973;-88
2022/03/26 00:53:46;;;;;;;;;;;11.10;85.20;11.70;100168.00;;;;341816;28;95580;-88
2022/03/26 00:53:58;;;;;;;;;;;11.10;85.90;11.70;100167.00;;;;343002;28;91045;-88
2022/03/26 00:54:10;;;;;;;;;;;11.10;85.40;11.70;100165.00;;;;339837;28;94677;-88
2022/03/26 00:54:23;;;;;;;;;;;11.10;85.90;11.70;100172.00;;;;340233;28;91946;-89
2022/03/26 00:54:35;;;;;;;;;;;11.20;85.40;11.70;100163.00;;;;340484;28;95146;-89
2022/03/26 00:54:47;;;;;;;;;;;11.20;85.40;11.70;100167.00;;;;341474;28;92118;-88
2022/03/26 00:54:59;;;;;;;;;;;11.10;85.50;11.70;100161.00;;;;338924;28;94651;-88
2022/03/26 00:55:10;;;;;;;;;;;11.20;85.60;11.80;100170.00;;;;341539;28;91251;-88
2022/03/26 00:55:22;;;;;;;;;;;11.20;85.60;11.80;100166.00;;;;341717;28;95227;-88
2022/03/26 00:55:34;;;;;;;;;;;11.20;85.40;11.70;100167.00;;;;338885;28;91229;-88
2022/03/26 00:55:46;;;;;;;;;;;11.20;85.30;11.50;100164.00;;;;340433;28;95219;-88
2022/03/26 00:55:58;;;;;;;;;;;11.20;85.40;11.60;100164.00;;;;340206;28;92073;-88
2022/03/26 00:56:11;;;;;;;;;;;11.20;85.30;11.70;100171.00;;;;340153;28;96195;-88
2022/03/26 00:56:23;;;;;;;;;;;11.20;85.50;11.70;100168.00;;;;340894;28;91849;-88
2022/03/26 00:56:38;;;;;;;;;;;11.20;85.80;11.60;100168.00;;;;339074;28;94827;-88
2022/03/26 00:56:50;;;;;;;;;;;11.20;85.70;11.50;100166.00;;;;341451;28;92068;-88
2022/03/26 00:57:02;;;;;;;;;;;11.20;86.20;11.40;100172.00;;;;343213;28;92415;-89
2022/03/26 00:57:16;;;;;;;;;;;11.20;86.80;11.50;100167.00;;;;340232;28;91373;-88
2022/03/26 00:57:28;;;;;;;;;;;11.10;86.30;11.50;100162.00;;;;340271;28;95565;-88
2022/03/26 00:57:40;;;;;;;;;;;11.10;86.20;11.50;100173.00;;;;342882;28;91953;-88
2022/03/26 00:57:51;;;;;;;;;;;11.10;86.10;11.60;100165.00;;;;339119;28;95495;-88
2022/03/26 00:58:04;;;;;;;;;;;11.10;85.80;11.60;100171.00;;;;339855;28;92046;-88
2022/03/26 00:58:16;;;;;;;;;;;11.10;85.60;11.60;100168.00;;;;341608;28;95075;-88
2022/03/26 00:58:27;;;;;;;;;;;11.10;85.50;11.70;100171.00;;;;338795;28;92083;-88
2022/03/26 00:58:40;;;;;;;;;;;11.10;85.60;11.60;100160.00;;;;340367;28;95889;-88
2022/03/26 00:58:52;;;;;;;;;;;11.10;85.70;11.60;100167.00;;;;341545;28;92073;-88
2022/03/26 00:59:04;;;;;;;;;;;11.10;85.70;11.60;100164.00;;;;338894;28;95402;-88